<?xml version="1.0" encoding="UTF-8" standalone="no" ?>
<gpx xmlns="http://www.topografix.com/GPX/1/1" xmlns:xsi="http://www.w3.org/2001/XMLSchema-instance" xsi:schemaLocation="http://www.topografix.com/GPX/1/1 http://www.topografix.com/GPX/1/1/gpx.xsd" version="1.1" creator="VisuGPX - https://www.visugpx.com">
  <metadata>
    <name>Lancieux</name>
  </metadata>
  <trk>
    <name><![CDATA[Sequence 3]]></name>
    <trkseg>
      <trkpt lat="48.57443" lon="-2.05053">
        <ele>71</ele>
        <time>2017-06-18T08:40:27Z</time>
      </trkpt>
      <trkpt lat="48.57443" lon="-2.05053">
        <ele>71</ele>
        <time>2017-06-18T08:40:30Z</time>
      </trkpt>
      <trkpt lat="48.57443" lon="-2.05053">
        <ele>71</ele>
        <time>2017-06-18T08:40:33Z</time>
      </trkpt>
      <trkpt lat="48.57443" lon="-2.05053">
        <ele>71</ele>
        <time>2017-06-18T08:40:37Z</time>
      </trkpt>
      <trkpt lat="48.57444" lon="-2.05047">
        <ele>70</ele>
        <time>2017-06-18T08:40:39Z</time>
      </trkpt>
      <trkpt lat="48.57442" lon="-2.05026">
        <ele>72</ele>
        <time>2017-06-18T08:40:44Z</time>
      </trkpt>
      <trkpt lat="48.57439" lon="-2.04985">
        <ele>71</ele>
        <time>2017-06-18T08:40:51Z</time>
      </trkpt>
      <trkpt lat="48.57437" lon="-2.04955">
        <ele>71</ele>
        <time>2017-06-18T08:40:54Z</time>
      </trkpt>
      <trkpt lat="48.57432" lon="-2.04906">
        <ele>70</ele>
        <time>2017-06-18T08:41:00Z</time>
      </trkpt>
      <trkpt lat="48.5743" lon="-2.04874">
        <ele>69</ele>
        <time>2017-06-18T08:41:04Z</time>
      </trkpt>
      <trkpt lat="48.57426" lon="-2.04831">
        <ele>68</ele>
        <time>2017-06-18T08:41:09Z</time>
      </trkpt>
      <trkpt lat="48.57422" lon="-2.04756">
        <ele>67</ele>
        <time>2017-06-18T08:41:18Z</time>
      </trkpt>
      <trkpt lat="48.57422" lon="-2.04737">
        <ele>68</ele>
        <time>2017-06-18T08:41:20Z</time>
      </trkpt>
      <trkpt lat="48.57421" lon="-2.0469">
        <ele>69</ele>
        <time>2017-06-18T08:41:24Z</time>
      </trkpt>
      <trkpt lat="48.5742" lon="-2.04643">
        <ele>68</ele>
        <time>2017-06-18T08:41:29Z</time>
      </trkpt>
      <trkpt lat="48.57419" lon="-2.04584">
        <ele>68</ele>
        <time>2017-06-18T08:41:34Z</time>
      </trkpt>
      <trkpt lat="48.57416" lon="-2.04528">
        <ele>65</ele>
        <time>2017-06-18T08:41:39Z</time>
      </trkpt>
      <trkpt lat="48.57415" lon="-2.04441">
        <ele>64</ele>
        <time>2017-06-18T08:41:48Z</time>
      </trkpt>
      <trkpt lat="48.57414" lon="-2.04409">
        <ele>64</ele>
        <time>2017-06-18T08:41:50Z</time>
      </trkpt>
      <trkpt lat="48.57412" lon="-2.0436">
        <ele>63</ele>
        <time>2017-06-18T08:41:55Z</time>
      </trkpt>
      <trkpt lat="48.57404" lon="-2.04315">
        <ele>62</ele>
        <time>2017-06-18T08:41:59Z</time>
      </trkpt>
      <trkpt lat="48.57377" lon="-2.04266">
        <ele>61</ele>
        <time>2017-06-18T08:42:04Z</time>
      </trkpt>
      <trkpt lat="48.57341" lon="-2.0422">
        <ele>59</ele>
        <time>2017-06-18T08:42:09Z</time>
      </trkpt>
      <trkpt lat="48.57306" lon="-2.04174">
        <ele>59</ele>
        <time>2017-06-18T08:42:14Z</time>
      </trkpt>
      <trkpt lat="48.57282" lon="-2.04135">
        <ele>59</ele>
        <time>2017-06-18T08:42:20Z</time>
      </trkpt>
      <trkpt lat="48.57257" lon="-2.04068">
        <ele>59</ele>
        <time>2017-06-18T08:42:28Z</time>
      </trkpt>
      <trkpt lat="48.57252" lon="-2.04055">
        <ele>59</ele>
        <time>2017-06-18T08:42:30Z</time>
      </trkpt>
      <trkpt lat="48.57242" lon="-2.04028">
        <ele>59</ele>
        <time>2017-06-18T08:42:35Z</time>
      </trkpt>
      <trkpt lat="48.57227" lon="-2.03986">
        <ele>60</ele>
        <time>2017-06-18T08:42:41Z</time>
      </trkpt>
      <trkpt lat="48.57218" lon="-2.03962">
        <ele>60</ele>
        <time>2017-06-18T08:42:44Z</time>
      </trkpt>
      <trkpt lat="48.57203" lon="-2.03919">
        <ele>61</ele>
        <time>2017-06-18T08:42:52Z</time>
      </trkpt>
      <trkpt lat="48.57189" lon="-2.03871">
        <ele>62</ele>
        <time>2017-06-18T08:42:59Z</time>
      </trkpt>
      <trkpt lat="48.57188" lon="-2.03865">
        <ele>62</ele>
        <time>2017-06-18T08:42:59Z</time>
      </trkpt>
      <trkpt lat="48.57184" lon="-2.03831">
        <ele>63</ele>
        <time>2017-06-18T08:43:05Z</time>
      </trkpt>
      <trkpt lat="48.57182" lon="-2.03797">
        <ele>64</ele>
        <time>2017-06-18T08:43:10Z</time>
      </trkpt>
      <trkpt lat="48.57184" lon="-2.03762">
        <ele>64</ele>
        <time>2017-06-18T08:43:15Z</time>
      </trkpt>
      <trkpt lat="48.57195" lon="-2.0373">
        <ele>64</ele>
        <time>2017-06-18T08:43:20Z</time>
      </trkpt>
      <trkpt lat="48.5721" lon="-2.03692">
        <ele>63</ele>
        <time>2017-06-18T08:43:24Z</time>
      </trkpt>
      <trkpt lat="48.57231" lon="-2.03654">
        <ele>62</ele>
        <time>2017-06-18T08:43:30Z</time>
      </trkpt>
      <trkpt lat="48.57256" lon="-2.03616">
        <ele>61</ele>
        <time>2017-06-18T08:43:34Z</time>
      </trkpt>
      <trkpt lat="48.57281" lon="-2.03572">
        <ele>58</ele>
        <time>2017-06-18T08:43:40Z</time>
      </trkpt>
      <trkpt lat="48.57302" lon="-2.0352">
        <ele>57</ele>
        <time>2017-06-18T08:43:44Z</time>
      </trkpt>
      <trkpt lat="48.57316" lon="-2.03462">
        <ele>56</ele>
        <time>2017-06-18T08:43:50Z</time>
      </trkpt>
      <trkpt lat="48.57329" lon="-2.03397">
        <ele>53</ele>
        <time>2017-06-18T08:43:54Z</time>
      </trkpt>
      <trkpt lat="48.57354" lon="-2.03286">
        <ele>52</ele>
        <time>2017-06-18T08:44:03Z</time>
      </trkpt>
      <trkpt lat="48.5736" lon="-2.03259">
        <ele>52</ele>
        <time>2017-06-18T08:44:05Z</time>
      </trkpt>
      <trkpt lat="48.57388" lon="-2.03211">
        <ele>50</ele>
        <time>2017-06-18T08:44:09Z</time>
      </trkpt>
      <trkpt lat="48.57429" lon="-2.03186">
        <ele>48</ele>
        <time>2017-06-18T08:44:14Z</time>
      </trkpt>
      <trkpt lat="48.57469" lon="-2.03168">
        <ele>48</ele>
        <time>2017-06-18T08:44:20Z</time>
      </trkpt>
      <trkpt lat="48.57509" lon="-2.03123">
        <ele>49</ele>
        <time>2017-06-18T08:44:27Z</time>
      </trkpt>
      <trkpt lat="48.57515" lon="-2.03098">
        <ele>49</ele>
        <time>2017-06-18T08:44:29Z</time>
      </trkpt>
      <trkpt lat="48.57517" lon="-2.03062">
        <ele>49</ele>
        <time>2017-06-18T08:44:35Z</time>
      </trkpt>
      <trkpt lat="48.57524" lon="-2.0301">
        <ele>51</ele>
        <time>2017-06-18T08:44:42Z</time>
      </trkpt>
      <trkpt lat="48.57528" lon="-2.02991">
        <ele>52</ele>
        <time>2017-06-18T08:44:45Z</time>
      </trkpt>
      <trkpt lat="48.57536" lon="-2.02963">
        <ele>54</ele>
        <time>2017-06-18T08:44:50Z</time>
      </trkpt>
      <trkpt lat="48.57546" lon="-2.02939">
        <ele>53</ele>
        <time>2017-06-18T08:44:55Z</time>
      </trkpt>
      <trkpt lat="48.57559" lon="-2.02912">
        <ele>54</ele>
        <time>2017-06-18T08:45:00Z</time>
      </trkpt>
      <trkpt lat="48.57572" lon="-2.02884">
        <ele>54</ele>
        <time>2017-06-18T08:45:04Z</time>
      </trkpt>
      <trkpt lat="48.57587" lon="-2.02858">
        <ele>54</ele>
        <time>2017-06-18T08:45:10Z</time>
      </trkpt>
      <trkpt lat="48.57598" lon="-2.02831">
        <ele>53</ele>
        <time>2017-06-18T08:45:14Z</time>
      </trkpt>
      <trkpt lat="48.57617" lon="-2.02796">
        <ele>54</ele>
        <time>2017-06-18T08:45:21Z</time>
      </trkpt>
      <trkpt lat="48.57624" lon="-2.02782">
        <ele>54</ele>
        <time>2017-06-18T08:45:25Z</time>
      </trkpt>
      <trkpt lat="48.57634" lon="-2.02755">
        <ele>54</ele>
        <time>2017-06-18T08:45:30Z</time>
      </trkpt>
      <trkpt lat="48.57645" lon="-2.02729">
        <ele>54</ele>
        <time>2017-06-18T08:45:34Z</time>
      </trkpt>
      <trkpt lat="48.57656" lon="-2.02704">
        <ele>55</ele>
        <time>2017-06-18T08:45:39Z</time>
      </trkpt>
      <trkpt lat="48.57667" lon="-2.02681">
        <ele>56</ele>
        <time>2017-06-18T08:45:45Z</time>
      </trkpt>
      <trkpt lat="48.57676" lon="-2.02661">
        <ele>57</ele>
        <time>2017-06-18T08:45:50Z</time>
      </trkpt>
      <trkpt lat="48.57686" lon="-2.02642">
        <ele>57</ele>
        <time>2017-06-18T08:45:54Z</time>
      </trkpt>
      <trkpt lat="48.57697" lon="-2.02623">
        <ele>58</ele>
        <time>2017-06-18T08:46:00Z</time>
      </trkpt>
      <trkpt lat="48.57711" lon="-2.02606">
        <ele>59</ele>
        <time>2017-06-18T08:46:05Z</time>
      </trkpt>
      <trkpt lat="48.57728" lon="-2.02594">
        <ele>59</ele>
        <time>2017-06-18T08:46:10Z</time>
      </trkpt>
      <trkpt lat="48.57744" lon="-2.02586">
        <ele>60</ele>
        <time>2017-06-18T08:46:15Z</time>
      </trkpt>
      <trkpt lat="48.57765" lon="-2.02574">
        <ele>60</ele>
        <time>2017-06-18T08:46:21Z</time>
      </trkpt>
      <trkpt lat="48.57778" lon="-2.02563">
        <ele>61</ele>
        <time>2017-06-18T08:46:25Z</time>
      </trkpt>
      <trkpt lat="48.57796" lon="-2.02548">
        <ele>61</ele>
        <time>2017-06-18T08:46:30Z</time>
      </trkpt>
      <trkpt lat="48.57813" lon="-2.02529">
        <ele>60</ele>
        <time>2017-06-18T08:46:35Z</time>
      </trkpt>
      <trkpt lat="48.57817" lon="-2.02479">
        <ele>59</ele>
        <time>2017-06-18T08:46:41Z</time>
      </trkpt>
      <trkpt lat="48.57817" lon="-2.02443">
        <ele>57</ele>
        <time>2017-06-18T08:46:45Z</time>
      </trkpt>
      <trkpt lat="48.57814" lon="-2.0239">
        <ele>55</ele>
        <time>2017-06-18T08:46:50Z</time>
      </trkpt>
      <trkpt lat="48.57814" lon="-2.02327">
        <ele>54</ele>
        <time>2017-06-18T08:46:55Z</time>
      </trkpt>
      <trkpt lat="48.57815" lon="-2.02227">
        <ele>49</ele>
        <time>2017-06-18T08:47:02Z</time>
      </trkpt>
      <trkpt lat="48.57816" lon="-2.02126">
        <ele>47</ele>
        <time>2017-06-18T08:47:08Z</time>
      </trkpt>
      <trkpt lat="48.57807" lon="-2.02073">
        <ele>43</ele>
        <time>2017-06-18T08:47:12Z</time>
      </trkpt>
      <trkpt lat="48.57804" lon="-2.02031">
        <ele>39</ele>
        <time>2017-06-18T08:47:15Z</time>
      </trkpt>
      <trkpt lat="48.578" lon="-2.01969">
        <ele>39</ele>
        <time>2017-06-18T08:47:19Z</time>
      </trkpt>
      <trkpt lat="48.57782" lon="-2.01889">
        <ele>35</ele>
        <time>2017-06-18T08:47:24Z</time>
      </trkpt>
      <trkpt lat="48.57763" lon="-2.01782">
        <ele>33</ele>
        <time>2017-06-18T08:47:31Z</time>
      </trkpt>
      <trkpt lat="48.57746" lon="-2.01683">
        <ele>28</ele>
        <time>2017-06-18T08:47:38Z</time>
      </trkpt>
      <trkpt lat="48.57748" lon="-2.01654">
        <ele>27</ele>
        <time>2017-06-18T08:47:40Z</time>
      </trkpt>
      <trkpt lat="48.5776" lon="-2.01606">
        <ele>28</ele>
        <time>2017-06-18T08:47:45Z</time>
      </trkpt>
      <trkpt lat="48.57768" lon="-2.01554">
        <ele>30</ele>
        <time>2017-06-18T08:47:49Z</time>
      </trkpt>
      <trkpt lat="48.57768" lon="-2.01513">
        <ele>30</ele>
        <time>2017-06-18T08:47:55Z</time>
      </trkpt>
      <trkpt lat="48.57767" lon="-2.01482">
        <ele>33</ele>
        <time>2017-06-18T08:48:00Z</time>
      </trkpt>
      <trkpt lat="48.57768" lon="-2.01455">
        <ele>34</ele>
        <time>2017-06-18T08:48:05Z</time>
      </trkpt>
      <trkpt lat="48.57765" lon="-2.01407">
        <ele>37</ele>
        <time>2017-06-18T08:48:13Z</time>
      </trkpt>
      <trkpt lat="48.57766" lon="-2.01366">
        <ele>37</ele>
        <time>2017-06-18T08:48:18Z</time>
      </trkpt>
      <trkpt lat="48.57767" lon="-2.01351">
        <ele>38</ele>
        <time>2017-06-18T08:48:21Z</time>
      </trkpt>
      <trkpt lat="48.57765" lon="-2.01347">
        <ele>36</ele>
        <time>2017-06-18T08:48:25Z</time>
      </trkpt>
      <trkpt lat="48.57765" lon="-2.01348">
        <ele>36</ele>
        <time>2017-06-18T08:48:29Z</time>
      </trkpt>
      <trkpt lat="48.57764" lon="-2.01347">
        <ele>36</ele>
        <time>2017-06-18T08:48:33Z</time>
      </trkpt>
      <trkpt lat="48.57763" lon="-2.01343">
        <ele>35</ele>
        <time>2017-06-18T08:48:35Z</time>
      </trkpt>
      <trkpt lat="48.57762" lon="-2.01328">
        <ele>35</ele>
        <time>2017-06-18T08:48:40Z</time>
      </trkpt>
      <trkpt lat="48.5776" lon="-2.01303">
        <ele>36</ele>
        <time>2017-06-18T08:48:46Z</time>
      </trkpt>
      <trkpt lat="48.57758" lon="-2.01273">
        <ele>35</ele>
        <time>2017-06-18T08:48:50Z</time>
      </trkpt>
      <trkpt lat="48.57757" lon="-2.01234">
        <ele>36</ele>
        <time>2017-06-18T08:48:57Z</time>
      </trkpt>
      <trkpt lat="48.57757" lon="-2.0122">
        <ele>37</ele>
        <time>2017-06-18T08:49:00Z</time>
      </trkpt>
      <trkpt lat="48.57758" lon="-2.01189">
        <ele>38</ele>
        <time>2017-06-18T08:49:07Z</time>
      </trkpt>
      <trkpt lat="48.57758" lon="-2.01191">
        <ele>38</ele>
        <time>2017-06-18T08:49:11Z</time>
      </trkpt>
      <trkpt lat="48.57759" lon="-2.01191">
        <ele>38</ele>
        <time>2017-06-18T08:49:15Z</time>
      </trkpt>
      <trkpt lat="48.57759" lon="-2.01191">
        <ele>38</ele>
        <time>2017-06-18T08:49:19Z</time>
      </trkpt>
      <trkpt lat="48.57759" lon="-2.0119">
        <ele>37</ele>
        <time>2017-06-18T08:49:22Z</time>
      </trkpt>
      <trkpt lat="48.57758" lon="-2.01191">
        <ele>37</ele>
        <time>2017-06-18T08:49:24Z</time>
      </trkpt>
      <trkpt lat="48.57758" lon="-2.0119">
        <ele>37</ele>
        <time>2017-06-18T08:49:28Z</time>
      </trkpt>
      <trkpt lat="48.57758" lon="-2.01192">
        <ele>36</ele>
        <time>2017-06-18T08:49:31Z</time>
      </trkpt>
      <trkpt lat="48.57758" lon="-2.01192">
        <ele>36</ele>
        <time>2017-06-18T08:49:34Z</time>
      </trkpt>
      <trkpt lat="48.57759" lon="-2.01191">
        <ele>36</ele>
        <time>2017-06-18T08:49:37Z</time>
      </trkpt>
      <trkpt lat="48.57757" lon="-2.0118">
        <ele>36</ele>
        <time>2017-06-18T08:49:39Z</time>
      </trkpt>
      <trkpt lat="48.57751" lon="-2.0114">
        <ele>37</ele>
        <time>2017-06-18T08:49:44Z</time>
      </trkpt>
      <trkpt lat="48.57748" lon="-2.01094">
        <ele>38</ele>
        <time>2017-06-18T08:49:49Z</time>
      </trkpt>
      <trkpt lat="48.57753" lon="-2.01044">
        <ele>38</ele>
        <time>2017-06-18T08:49:54Z</time>
      </trkpt>
      <trkpt lat="48.57781" lon="-2.00995">
        <ele>37</ele>
        <time>2017-06-18T08:50:01Z</time>
      </trkpt>
      <trkpt lat="48.57799" lon="-2.0096">
        <ele>35</ele>
        <time>2017-06-18T08:50:05Z</time>
      </trkpt>
      <trkpt lat="48.5782" lon="-2.00904">
        <ele>31</ele>
        <time>2017-06-18T08:50:10Z</time>
      </trkpt>
      <trkpt lat="48.57837" lon="-2.00852">
        <ele>29</ele>
        <time>2017-06-18T08:50:15Z</time>
      </trkpt>
      <trkpt lat="48.57856" lon="-2.00822">
        <ele>25</ele>
        <time>2017-06-18T08:50:20Z</time>
      </trkpt>
      <trkpt lat="48.57873" lon="-2.00812">
        <ele>25</ele>
        <time>2017-06-18T08:50:24Z</time>
      </trkpt>
      <trkpt lat="48.57882" lon="-2.00799">
        <ele>25</ele>
        <time>2017-06-18T08:50:30Z</time>
      </trkpt>
      <trkpt lat="48.57887" lon="-2.00778">
        <ele>24</ele>
        <time>2017-06-18T08:50:35Z</time>
      </trkpt>
      <trkpt lat="48.57891" lon="-2.00769">
        <ele>25</ele>
        <time>2017-06-18T08:50:40Z</time>
      </trkpt>
      <trkpt lat="48.57896" lon="-2.00734">
        <ele>23</ele>
        <time>2017-06-18T08:50:45Z</time>
      </trkpt>
      <trkpt lat="48.57903" lon="-2.00693">
        <ele>24</ele>
        <time>2017-06-18T08:50:50Z</time>
      </trkpt>
      <trkpt lat="48.57915" lon="-2.00627">
        <ele>22</ele>
        <time>2017-06-18T08:50:59Z</time>
      </trkpt>
      <trkpt lat="48.57917" lon="-2.00622">
        <ele>22</ele>
        <time>2017-06-18T08:51:00Z</time>
      </trkpt>
      <trkpt lat="48.57924" lon="-2.00595">
        <ele>22</ele>
        <time>2017-06-18T08:51:05Z</time>
      </trkpt>
      <trkpt lat="48.57935" lon="-2.0056">
        <ele>21</ele>
        <time>2017-06-18T08:51:10Z</time>
      </trkpt>
      <trkpt lat="48.57949" lon="-2.00523">
        <ele>20</ele>
        <time>2017-06-18T08:51:15Z</time>
      </trkpt>
      <trkpt lat="48.57959" lon="-2.00487">
        <ele>21</ele>
        <time>2017-06-18T08:51:20Z</time>
      </trkpt>
      <trkpt lat="48.5797" lon="-2.00455">
        <ele>21</ele>
        <time>2017-06-18T08:51:25Z</time>
      </trkpt>
      <trkpt lat="48.57983" lon="-2.0042">
        <ele>22</ele>
        <time>2017-06-18T08:51:31Z</time>
      </trkpt>
      <trkpt lat="48.57991" lon="-2.004">
        <ele>23</ele>
        <time>2017-06-18T08:51:35Z</time>
      </trkpt>
      <trkpt lat="48.58001" lon="-2.00388">
        <ele>25</ele>
        <time>2017-06-18T08:51:40Z</time>
      </trkpt>
      <trkpt lat="48.5802" lon="-2.00403">
        <ele>28</ele>
        <time>2017-06-18T08:51:46Z</time>
      </trkpt>
      <trkpt lat="48.58035" lon="-2.00418">
        <ele>28</ele>
        <time>2017-06-18T08:51:50Z</time>
      </trkpt>
      <trkpt lat="48.58055" lon="-2.0044">
        <ele>31</ele>
        <time>2017-06-18T08:51:56Z</time>
      </trkpt>
      <trkpt lat="48.58072" lon="-2.00456">
        <ele>32</ele>
        <time>2017-06-18T08:52:00Z</time>
      </trkpt>
      <trkpt lat="48.58116" lon="-2.0047">
        <ele>32</ele>
        <time>2017-06-18T08:52:08Z</time>
      </trkpt>
      <trkpt lat="48.58121" lon="-2.00471">
        <ele>31</ele>
        <time>2017-06-18T08:52:10Z</time>
      </trkpt>
      <trkpt lat="48.5815" lon="-2.00474">
        <ele>30</ele>
        <time>2017-06-18T08:52:14Z</time>
      </trkpt>
      <trkpt lat="48.582" lon="-2.00485">
        <ele>31</ele>
        <time>2017-06-18T08:52:22Z</time>
      </trkpt>
      <trkpt lat="48.5822" lon="-2.0051">
        <ele>30</ele>
        <time>2017-06-18T08:52:27Z</time>
      </trkpt>
      <trkpt lat="48.58226" lon="-2.0052">
        <ele>31</ele>
        <time>2017-06-18T08:52:30Z</time>
      </trkpt>
      <trkpt lat="48.58251" lon="-2.00554">
        <ele>31</ele>
        <time>2017-06-18T08:52:38Z</time>
      </trkpt>
      <trkpt lat="48.58254" lon="-2.00557">
        <ele>30</ele>
        <time>2017-06-18T08:52:40Z</time>
      </trkpt>
      <trkpt lat="48.58269" lon="-2.00576">
        <ele>30</ele>
        <time>2017-06-18T08:52:46Z</time>
      </trkpt>
      <trkpt lat="48.58281" lon="-2.00584">
        <ele>30</ele>
        <time>2017-06-18T08:52:50Z</time>
      </trkpt>
      <trkpt lat="48.58297" lon="-2.00592">
        <ele>29</ele>
        <time>2017-06-18T08:52:55Z</time>
      </trkpt>
      <trkpt lat="48.58312" lon="-2.006">
        <ele>29</ele>
        <time>2017-06-18T08:53:00Z</time>
      </trkpt>
      <trkpt lat="48.58326" lon="-2.0061">
        <ele>30</ele>
        <time>2017-06-18T08:53:05Z</time>
      </trkpt>
      <trkpt lat="48.58345" lon="-2.00625">
        <ele>31</ele>
        <time>2017-06-18T08:53:11Z</time>
      </trkpt>
      <trkpt lat="48.58362" lon="-2.00641">
        <ele>33</ele>
        <time>2017-06-18T08:53:16Z</time>
      </trkpt>
      <trkpt lat="48.58381" lon="-2.00657">
        <ele>35</ele>
        <time>2017-06-18T08:53:23Z</time>
      </trkpt>
      <trkpt lat="48.58384" lon="-2.0066">
        <ele>34</ele>
        <time>2017-06-18T08:53:24Z</time>
      </trkpt>
      <trkpt lat="48.5839" lon="-2.00667">
        <ele>35</ele>
        <time>2017-06-18T08:53:29Z</time>
      </trkpt>
      <trkpt lat="48.58386" lon="-2.00689">
        <ele>33</ele>
        <time>2017-06-18T08:53:34Z</time>
      </trkpt>
      <trkpt lat="48.58381" lon="-2.00728">
        <ele>32</ele>
        <time>2017-06-18T08:53:39Z</time>
      </trkpt>
      <trkpt lat="48.58369" lon="-2.00782">
        <ele>31</ele>
        <time>2017-06-18T08:53:45Z</time>
      </trkpt>
      <trkpt lat="48.5836" lon="-2.00827">
        <ele>31</ele>
        <time>2017-06-18T08:53:50Z</time>
      </trkpt>
      <trkpt lat="48.58347" lon="-2.00894">
        <ele>32</ele>
        <time>2017-06-18T08:53:58Z</time>
      </trkpt>
      <trkpt lat="48.58344" lon="-2.0092">
        <ele>31</ele>
        <time>2017-06-18T08:54:01Z</time>
      </trkpt>
      <trkpt lat="48.5834" lon="-2.00957">
        <ele>33</ele>
        <time>2017-06-18T08:54:06Z</time>
      </trkpt>
      <trkpt lat="48.58336" lon="-2.00993">
        <ele>34</ele>
        <time>2017-06-18T08:54:10Z</time>
      </trkpt>
      <trkpt lat="48.58329" lon="-2.01042">
        <ele>34</ele>
        <time>2017-06-18T08:54:15Z</time>
      </trkpt>
      <trkpt lat="48.58328" lon="-2.01075">
        <ele>35</ele>
        <time>2017-06-18T08:54:19Z</time>
      </trkpt>
      <trkpt lat="48.58331" lon="-2.01116">
        <ele>36</ele>
        <time>2017-06-18T08:54:24Z</time>
      </trkpt>
      <trkpt lat="48.58334" lon="-2.01166">
        <ele>37</ele>
        <time>2017-06-18T08:54:31Z</time>
      </trkpt>
      <trkpt lat="48.58336" lon="-2.01192">
        <ele>36</ele>
        <time>2017-06-18T08:54:35Z</time>
      </trkpt>
      <trkpt lat="48.58336" lon="-2.01219">
        <ele>35</ele>
        <time>2017-06-18T08:54:39Z</time>
      </trkpt>
      <trkpt lat="48.5834" lon="-2.01252">
        <ele>37</ele>
        <time>2017-06-18T08:54:44Z</time>
      </trkpt>
      <trkpt lat="48.58344" lon="-2.01284">
        <ele>38</ele>
        <time>2017-06-18T08:54:49Z</time>
      </trkpt>
      <trkpt lat="48.58346" lon="-2.01318">
        <ele>40</ele>
        <time>2017-06-18T08:54:54Z</time>
      </trkpt>
      <trkpt lat="48.5835" lon="-2.01351">
        <ele>38</ele>
        <time>2017-06-18T08:54:59Z</time>
      </trkpt>
      <trkpt lat="48.58352" lon="-2.01386">
        <ele>38</ele>
        <time>2017-06-18T08:55:05Z</time>
      </trkpt>
      <trkpt lat="48.58351" lon="-2.01414">
        <ele>39</ele>
        <time>2017-06-18T08:55:11Z</time>
      </trkpt>
      <trkpt lat="48.58348" lon="-2.01433">
        <ele>40</ele>
        <time>2017-06-18T08:55:14Z</time>
      </trkpt>
      <trkpt lat="48.58348" lon="-2.01465">
        <ele>36</ele>
        <time>2017-06-18T08:55:22Z</time>
      </trkpt>
      <trkpt lat="48.58348" lon="-2.01474">
        <ele>38</ele>
        <time>2017-06-18T08:55:24Z</time>
      </trkpt>
      <trkpt lat="48.5835" lon="-2.01494">
        <ele>39</ele>
        <time>2017-06-18T08:55:29Z</time>
      </trkpt>
      <trkpt lat="48.58351" lon="-2.01514">
        <ele>40</ele>
        <time>2017-06-18T08:55:34Z</time>
      </trkpt>
      <trkpt lat="48.58354" lon="-2.01541">
        <ele>41</ele>
        <time>2017-06-18T08:55:42Z</time>
      </trkpt>
      <trkpt lat="48.58359" lon="-2.01551">
        <ele>44</ele>
        <time>2017-06-18T08:55:45Z</time>
      </trkpt>
      <trkpt lat="48.58371" lon="-2.01562">
        <ele>43</ele>
        <time>2017-06-18T08:55:49Z</time>
      </trkpt>
      <trkpt lat="48.58387" lon="-2.01569">
        <ele>42</ele>
        <time>2017-06-18T08:55:56Z</time>
      </trkpt>
      <trkpt lat="48.58405" lon="-2.01577">
        <ele>44</ele>
        <time>2017-06-18T08:56:02Z</time>
      </trkpt>
      <trkpt lat="48.58415" lon="-2.01582">
        <ele>47</ele>
        <time>2017-06-18T08:56:05Z</time>
      </trkpt>
      <trkpt lat="48.58439" lon="-2.01595">
        <ele>46</ele>
        <time>2017-06-18T08:56:13Z</time>
      </trkpt>
      <trkpt lat="48.5845" lon="-2.016">
        <ele>46</ele>
        <time>2017-06-18T08:56:17Z</time>
      </trkpt>
      <trkpt lat="48.58458" lon="-2.01604">
        <ele>46</ele>
        <time>2017-06-18T08:56:19Z</time>
      </trkpt>
      <trkpt lat="48.58473" lon="-2.01612">
        <ele>46</ele>
        <time>2017-06-18T08:56:25Z</time>
      </trkpt>
      <trkpt lat="48.58485" lon="-2.01618">
        <ele>46</ele>
        <time>2017-06-18T08:56:30Z</time>
      </trkpt>
      <trkpt lat="48.58502" lon="-2.01627">
        <ele>47</ele>
        <time>2017-06-18T08:56:35Z</time>
      </trkpt>
      <trkpt lat="48.58518" lon="-2.01636">
        <ele>47</ele>
        <time>2017-06-18T08:56:39Z</time>
      </trkpt>
      <trkpt lat="48.58535" lon="-2.01644">
        <ele>48</ele>
        <time>2017-06-18T08:56:44Z</time>
      </trkpt>
      <trkpt lat="48.58551" lon="-2.01653">
        <ele>46</ele>
        <time>2017-06-18T08:56:49Z</time>
      </trkpt>
      <trkpt lat="48.58569" lon="-2.01662">
        <ele>46</ele>
        <time>2017-06-18T08:56:55Z</time>
      </trkpt>
      <trkpt lat="48.58586" lon="-2.0167">
        <ele>47</ele>
        <time>2017-06-18T08:57:00Z</time>
      </trkpt>
      <trkpt lat="48.58608" lon="-2.01681">
        <ele>46</ele>
        <time>2017-06-18T08:57:05Z</time>
      </trkpt>
      <trkpt lat="48.5863" lon="-2.01691">
        <ele>46</ele>
        <time>2017-06-18T08:57:10Z</time>
      </trkpt>
      <trkpt lat="48.58651" lon="-2.01702">
        <ele>45</ele>
        <time>2017-06-18T08:57:15Z</time>
      </trkpt>
      <trkpt lat="48.58673" lon="-2.01715">
        <ele>45</ele>
        <time>2017-06-18T08:57:20Z</time>
      </trkpt>
      <trkpt lat="48.58695" lon="-2.01725">
        <ele>46</ele>
        <time>2017-06-18T08:57:25Z</time>
      </trkpt>
      <trkpt lat="48.58719" lon="-2.01737">
        <ele>45</ele>
        <time>2017-06-18T08:57:30Z</time>
      </trkpt>
      <trkpt lat="48.58743" lon="-2.01748">
        <ele>45</ele>
        <time>2017-06-18T08:57:34Z</time>
      </trkpt>
      <trkpt lat="48.58767" lon="-2.01761">
        <ele>45</ele>
        <time>2017-06-18T08:57:40Z</time>
      </trkpt>
      <trkpt lat="48.58791" lon="-2.01773">
        <ele>46</ele>
        <time>2017-06-18T08:57:45Z</time>
      </trkpt>
      <trkpt lat="48.58816" lon="-2.01786">
        <ele>45</ele>
        <time>2017-06-18T08:57:50Z</time>
      </trkpt>
      <trkpt lat="48.58851" lon="-2.01801">
        <ele>46</ele>
        <time>2017-06-18T08:57:58Z</time>
      </trkpt>
      <trkpt lat="48.58864" lon="-2.01807">
        <ele>46</ele>
        <time>2017-06-18T08:58:00Z</time>
      </trkpt>
      <trkpt lat="48.58885" lon="-2.0182">
        <ele>45</ele>
        <time>2017-06-18T08:58:05Z</time>
      </trkpt>
      <trkpt lat="48.58906" lon="-2.01831">
        <ele>43</ele>
        <time>2017-06-18T08:58:09Z</time>
      </trkpt>
      <trkpt lat="48.58933" lon="-2.01845">
        <ele>43</ele>
        <time>2017-06-18T08:58:14Z</time>
      </trkpt>
      <trkpt lat="48.58964" lon="-2.0186">
        <ele>44</ele>
        <time>2017-06-18T08:58:20Z</time>
      </trkpt>
      <trkpt lat="48.58995" lon="-2.01875">
        <ele>43</ele>
        <time>2017-06-18T08:58:24Z</time>
      </trkpt>
      <trkpt lat="48.59028" lon="-2.01891">
        <ele>41</ele>
        <time>2017-06-18T08:58:30Z</time>
      </trkpt>
      <trkpt lat="48.5906" lon="-2.01908">
        <ele>41</ele>
        <time>2017-06-18T08:58:34Z</time>
      </trkpt>
      <trkpt lat="48.59092" lon="-2.01924">
        <ele>41</ele>
        <time>2017-06-18T08:58:39Z</time>
      </trkpt>
      <trkpt lat="48.59124" lon="-2.01939">
        <ele>40</ele>
        <time>2017-06-18T08:58:44Z</time>
      </trkpt>
      <trkpt lat="48.59153" lon="-2.01954">
        <ele>39</ele>
        <time>2017-06-18T08:58:50Z</time>
      </trkpt>
      <trkpt lat="48.59181" lon="-2.01969">
        <ele>38</ele>
        <time>2017-06-18T08:58:55Z</time>
      </trkpt>
      <trkpt lat="48.59202" lon="-2.0198">
        <ele>38</ele>
        <time>2017-06-18T08:59:00Z</time>
      </trkpt>
      <trkpt lat="48.59205" lon="-2.01999">
        <ele>40</ele>
        <time>2017-06-18T08:59:05Z</time>
      </trkpt>
      <trkpt lat="48.59199" lon="-2.02029">
        <ele>39</ele>
        <time>2017-06-18T08:59:10Z</time>
      </trkpt>
      <trkpt lat="48.59189" lon="-2.02073">
        <ele>39</ele>
        <time>2017-06-18T08:59:15Z</time>
      </trkpt>
      <trkpt lat="48.59184" lon="-2.02099">
        <ele>38</ele>
        <time>2017-06-18T08:59:19Z</time>
      </trkpt>
      <trkpt lat="48.59177" lon="-2.02162">
        <ele>38</ele>
        <time>2017-06-18T08:59:27Z</time>
      </trkpt>
      <trkpt lat="48.59176" lon="-2.0218">
        <ele>38</ele>
        <time>2017-06-18T08:59:29Z</time>
      </trkpt>
      <trkpt lat="48.59169" lon="-2.02241">
        <ele>38</ele>
        <time>2017-06-18T08:59:35Z</time>
      </trkpt>
      <trkpt lat="48.59157" lon="-2.02283">
        <ele>36</ele>
        <time>2017-06-18T08:59:39Z</time>
      </trkpt>
      <trkpt lat="48.59135" lon="-2.02347">
        <ele>34</ele>
        <time>2017-06-18T08:59:45Z</time>
      </trkpt>
      <trkpt lat="48.59117" lon="-2.02392">
        <ele>34</ele>
        <time>2017-06-18T08:59:49Z</time>
      </trkpt>
      <trkpt lat="48.59092" lon="-2.02436">
        <ele>34</ele>
        <time>2017-06-18T08:59:54Z</time>
      </trkpt>
      <trkpt lat="48.59068" lon="-2.02466">
        <ele>35</ele>
        <time>2017-06-18T08:59:59Z</time>
      </trkpt>
      <trkpt lat="48.59043" lon="-2.02492">
        <ele>34</ele>
        <time>2017-06-18T09:00:05Z</time>
      </trkpt>
      <trkpt lat="48.59017" lon="-2.02521">
        <ele>36</ele>
        <time>2017-06-18T09:00:11Z</time>
      </trkpt>
      <trkpt lat="48.59001" lon="-2.02537">
        <ele>36</ele>
        <time>2017-06-18T09:00:15Z</time>
      </trkpt>
      <trkpt lat="48.58987" lon="-2.02553">
        <ele>37</ele>
        <time>2017-06-18T09:00:19Z</time>
      </trkpt>
      <trkpt lat="48.58977" lon="-2.02568">
        <ele>38</ele>
        <time>2017-06-18T09:00:24Z</time>
      </trkpt>
      <trkpt lat="48.58968" lon="-2.02578">
        <ele>39</ele>
        <time>2017-06-18T09:00:29Z</time>
      </trkpt>
      <trkpt lat="48.5896" lon="-2.0259">
        <ele>39</ele>
        <time>2017-06-18T09:00:35Z</time>
      </trkpt>
      <trkpt lat="48.58943" lon="-2.02606">
        <ele>39</ele>
        <time>2017-06-18T09:00:41Z</time>
      </trkpt>
      <trkpt lat="48.58929" lon="-2.02618">
        <ele>39</ele>
        <time>2017-06-18T09:00:44Z</time>
      </trkpt>
      <trkpt lat="48.58913" lon="-2.02634">
        <ele>41</ele>
        <time>2017-06-18T09:00:49Z</time>
      </trkpt>
      <trkpt lat="48.58897" lon="-2.02651">
        <ele>42</ele>
        <time>2017-06-18T09:00:54Z</time>
      </trkpt>
      <trkpt lat="48.58881" lon="-2.0267">
        <ele>43</ele>
        <time>2017-06-18T09:00:59Z</time>
      </trkpt>
      <trkpt lat="48.58866" lon="-2.02691">
        <ele>44</ele>
        <time>2017-06-18T09:01:04Z</time>
      </trkpt>
      <trkpt lat="48.58854" lon="-2.02717">
        <ele>44</ele>
        <time>2017-06-18T09:01:10Z</time>
      </trkpt>
      <trkpt lat="48.58842" lon="-2.02751">
        <ele>42</ele>
        <time>2017-06-18T09:01:14Z</time>
      </trkpt>
      <trkpt lat="48.58829" lon="-2.02795">
        <ele>40</ele>
        <time>2017-06-18T09:01:20Z</time>
      </trkpt>
      <trkpt lat="48.58809" lon="-2.0284">
        <ele>37</ele>
        <time>2017-06-18T09:01:25Z</time>
      </trkpt>
      <trkpt lat="48.58803" lon="-2.02893">
        <ele>38</ele>
        <time>2017-06-18T09:01:30Z</time>
      </trkpt>
      <trkpt lat="48.58802" lon="-2.02946">
        <ele>38</ele>
        <time>2017-06-18T09:01:35Z</time>
      </trkpt>
      <trkpt lat="48.58797" lon="-2.02995">
        <ele>39</ele>
        <time>2017-06-18T09:01:40Z</time>
      </trkpt>
      <trkpt lat="48.58794" lon="-2.0304">
        <ele>40</ele>
        <time>2017-06-18T09:01:44Z</time>
      </trkpt>
      <trkpt lat="48.58788" lon="-2.03079">
        <ele>40</ele>
        <time>2017-06-18T09:01:50Z</time>
      </trkpt>
      <trkpt lat="48.58764" lon="-2.03096">
        <ele>40</ele>
        <time>2017-06-18T09:01:55Z</time>
      </trkpt>
      <trkpt lat="48.58737" lon="-2.03094">
        <ele>40</ele>
        <time>2017-06-18T09:02:00Z</time>
      </trkpt>
      <trkpt lat="48.58716" lon="-2.03119">
        <ele>40</ele>
        <time>2017-06-18T09:02:05Z</time>
      </trkpt>
      <trkpt lat="48.58709" lon="-2.03159">
        <ele>40</ele>
        <time>2017-06-18T09:02:10Z</time>
      </trkpt>
      <trkpt lat="48.58702" lon="-2.03198">
        <ele>42</ele>
        <time>2017-06-18T09:02:15Z</time>
      </trkpt>
      <trkpt lat="48.58695" lon="-2.0324">
        <ele>41</ele>
        <time>2017-06-18T09:02:20Z</time>
      </trkpt>
      <trkpt lat="48.58688" lon="-2.03283">
        <ele>42</ele>
        <time>2017-06-18T09:02:25Z</time>
      </trkpt>
      <trkpt lat="48.58681" lon="-2.03328">
        <ele>40</ele>
        <time>2017-06-18T09:02:30Z</time>
      </trkpt>
      <trkpt lat="48.58669" lon="-2.03415">
        <ele>35</ele>
        <time>2017-06-18T09:02:38Z</time>
      </trkpt>
      <trkpt lat="48.58663" lon="-2.0345">
        <ele>34</ele>
        <time>2017-06-18T09:02:41Z</time>
      </trkpt>
      <trkpt lat="48.58631" lon="-2.03526">
        <ele>33</ele>
        <time>2017-06-18T09:02:47Z</time>
      </trkpt>
      <trkpt lat="48.58621" lon="-2.03546">
        <ele>33</ele>
        <time>2017-06-18T09:02:49Z</time>
      </trkpt>
      <trkpt lat="48.58605" lon="-2.03619">
        <ele>33</ele>
        <time>2017-06-18T09:02:57Z</time>
      </trkpt>
      <trkpt lat="48.586" lon="-2.03645">
        <ele>34</ele>
        <time>2017-06-18T09:02:59Z</time>
      </trkpt>
      <trkpt lat="48.58592" lon="-2.03676">
        <ele>35</ele>
        <time>2017-06-18T09:03:04Z</time>
      </trkpt>
      <trkpt lat="48.58584" lon="-2.03705">
        <ele>38</ele>
        <time>2017-06-18T09:03:10Z</time>
      </trkpt>
      <trkpt lat="48.58573" lon="-2.03735">
        <ele>36</ele>
        <time>2017-06-18T09:03:15Z</time>
      </trkpt>
      <trkpt lat="48.58569" lon="-2.03759">
        <ele>34</ele>
        <time>2017-06-18T09:03:20Z</time>
      </trkpt>
      <trkpt lat="48.58572" lon="-2.03796">
        <ele>37</ele>
        <time>2017-06-18T09:03:26Z</time>
      </trkpt>
      <trkpt lat="48.58579" lon="-2.03838">
        <ele>41</ele>
        <time>2017-06-18T09:03:33Z</time>
      </trkpt>
      <trkpt lat="48.5858" lon="-2.0385">
        <ele>41</ele>
        <time>2017-06-18T09:03:35Z</time>
      </trkpt>
      <trkpt lat="48.58586" lon="-2.03877">
        <ele>44</ele>
        <time>2017-06-18T09:03:39Z</time>
      </trkpt>
      <trkpt lat="48.58591" lon="-2.03905">
        <ele>45</ele>
        <time>2017-06-18T09:03:45Z</time>
      </trkpt>
      <trkpt lat="48.58593" lon="-2.03921">
        <ele>45</ele>
        <time>2017-06-18T09:03:49Z</time>
      </trkpt>
      <trkpt lat="48.58594" lon="-2.03942">
        <ele>46</ele>
        <time>2017-06-18T09:03:54Z</time>
      </trkpt>
      <trkpt lat="48.58596" lon="-2.03964">
        <ele>47</ele>
        <time>2017-06-18T09:04:00Z</time>
      </trkpt>
      <trkpt lat="48.58597" lon="-2.0399">
        <ele>48</ele>
        <time>2017-06-18T09:04:04Z</time>
      </trkpt>
      <trkpt lat="48.58599" lon="-2.04017">
        <ele>48</ele>
        <time>2017-06-18T09:04:10Z</time>
      </trkpt>
      <trkpt lat="48.58601" lon="-2.04048">
        <ele>48</ele>
        <time>2017-06-18T09:04:15Z</time>
      </trkpt>
      <trkpt lat="48.58604" lon="-2.04078">
        <ele>48</ele>
        <time>2017-06-18T09:04:20Z</time>
      </trkpt>
      <trkpt lat="48.58608" lon="-2.04107">
        <ele>48</ele>
        <time>2017-06-18T09:04:25Z</time>
      </trkpt>
      <trkpt lat="48.58614" lon="-2.0413">
        <ele>48</ele>
        <time>2017-06-18T09:04:30Z</time>
      </trkpt>
      <trkpt lat="48.58618" lon="-2.0415">
        <ele>48</ele>
        <time>2017-06-18T09:04:34Z</time>
      </trkpt>
      <trkpt lat="48.58621" lon="-2.04152">
        <ele>48</ele>
        <time>2017-06-18T09:04:39Z</time>
      </trkpt>
      <trkpt lat="48.58621" lon="-2.04151">
        <ele>48</ele>
        <time>2017-06-18T09:04:44Z</time>
      </trkpt>
      <trkpt lat="48.58621" lon="-2.0415">
        <ele>48</ele>
        <time>2017-06-18T09:04:47Z</time>
      </trkpt>
      <trkpt lat="48.58621" lon="-2.0415">
        <ele>48</ele>
        <time>2017-06-18T09:04:50Z</time>
      </trkpt>
      <trkpt lat="48.58621" lon="-2.0415">
        <ele>48</ele>
        <time>2017-06-18T09:04:53Z</time>
      </trkpt>
      <trkpt lat="48.58621" lon="-2.0415">
        <ele>48</ele>
        <time>2017-06-18T09:04:57Z</time>
      </trkpt>
      <trkpt lat="48.58621" lon="-2.0415">
        <ele>48</ele>
        <time>2017-06-18T09:04:59Z</time>
      </trkpt>
      <trkpt lat="48.58621" lon="-2.0415">
        <ele>48</ele>
        <time>2017-06-18T09:05:02Z</time>
      </trkpt>
      <trkpt lat="48.58622" lon="-2.04151">
        <ele>48</ele>
        <time>2017-06-18T09:05:05Z</time>
      </trkpt>
      <trkpt lat="48.58628" lon="-2.04153">
        <ele>48</ele>
        <time>2017-06-18T09:05:08Z</time>
      </trkpt>
      <trkpt lat="48.58645" lon="-2.04144">
        <ele>47</ele>
        <time>2017-06-18T09:05:14Z</time>
      </trkpt>
      <trkpt lat="48.58667" lon="-2.04128">
        <ele>47</ele>
        <time>2017-06-18T09:05:18Z</time>
      </trkpt>
      <trkpt lat="48.58691" lon="-2.04118">
        <ele>47</ele>
        <time>2017-06-18T09:05:24Z</time>
      </trkpt>
      <trkpt lat="48.58717" lon="-2.04107">
        <ele>47</ele>
        <time>2017-06-18T09:05:29Z</time>
      </trkpt>
      <trkpt lat="48.58742" lon="-2.04097">
        <ele>47</ele>
        <time>2017-06-18T09:05:33Z</time>
      </trkpt>
      <trkpt lat="48.5877" lon="-2.04084">
        <ele>47</ele>
        <time>2017-06-18T09:05:38Z</time>
      </trkpt>
      <trkpt lat="48.58798" lon="-2.04067">
        <ele>47</ele>
        <time>2017-06-18T09:05:43Z</time>
      </trkpt>
      <trkpt lat="48.58822" lon="-2.04039">
        <ele>47</ele>
        <time>2017-06-18T09:05:48Z</time>
      </trkpt>
      <trkpt lat="48.58844" lon="-2.0401">
        <ele>46</ele>
        <time>2017-06-18T09:05:53Z</time>
      </trkpt>
      <trkpt lat="48.58865" lon="-2.0398">
        <ele>46</ele>
        <time>2017-06-18T09:05:58Z</time>
      </trkpt>
      <trkpt lat="48.58886" lon="-2.03949">
        <ele>45</ele>
        <time>2017-06-18T09:06:03Z</time>
      </trkpt>
      <trkpt lat="48.589" lon="-2.03909">
        <ele>44</ele>
        <time>2017-06-18T09:06:08Z</time>
      </trkpt>
      <trkpt lat="48.58904" lon="-2.03862">
        <ele>43</ele>
        <time>2017-06-18T09:06:13Z</time>
      </trkpt>
      <trkpt lat="48.5891" lon="-2.03805">
        <ele>41</ele>
        <time>2017-06-18T09:06:20Z</time>
      </trkpt>
      <trkpt lat="48.58921" lon="-2.03771">
        <ele>41</ele>
        <time>2017-06-18T09:06:24Z</time>
      </trkpt>
      <trkpt lat="48.58944" lon="-2.03733">
        <ele>40</ele>
        <time>2017-06-18T09:06:28Z</time>
      </trkpt>
      <trkpt lat="48.58972" lon="-2.03699">
        <ele>39</ele>
        <time>2017-06-18T09:06:33Z</time>
      </trkpt>
      <trkpt lat="48.59009" lon="-2.0365">
        <ele>36</ele>
        <time>2017-06-18T09:06:40Z</time>
      </trkpt>
      <trkpt lat="48.59034" lon="-2.03593">
        <ele>34</ele>
        <time>2017-06-18T09:06:45Z</time>
      </trkpt>
      <trkpt lat="48.59057" lon="-2.0355">
        <ele>33</ele>
        <time>2017-06-18T09:06:48Z</time>
      </trkpt>
      <trkpt lat="48.59116" lon="-2.03471">
        <ele>31</ele>
        <time>2017-06-18T09:06:56Z</time>
      </trkpt>
      <trkpt lat="48.59127" lon="-2.03455">
        <ele>31</ele>
        <time>2017-06-18T09:06:59Z</time>
      </trkpt>
      <trkpt lat="48.59174" lon="-2.03434">
        <ele>24</ele>
        <time>2017-06-18T09:07:03Z</time>
      </trkpt>
      <trkpt lat="48.59227" lon="-2.03408">
        <ele>24</ele>
        <time>2017-06-18T09:07:08Z</time>
      </trkpt>
      <trkpt lat="48.59269" lon="-2.0339">
        <ele>23</ele>
        <time>2017-06-18T09:07:17Z</time>
      </trkpt>
      <trkpt lat="48.59271" lon="-2.0339">
        <ele>24</ele>
        <time>2017-06-18T09:07:19Z</time>
      </trkpt>
      <trkpt lat="48.59268" lon="-2.0341">
        <ele>17</ele>
        <time>2017-06-18T09:07:25Z</time>
      </trkpt>
      <trkpt lat="48.59269" lon="-2.0341">
        <ele>20</ele>
        <time>2017-06-18T09:07:28Z</time>
      </trkpt>
    </trkseg>
  </trk>
</gpx>